sensor_id;sensor_type;location;lat;lon;timestamp;pressure;altitude;pressure_sealevel;temperature;humidity
55990;BME280;41875;55.806;38.082;2022-08-11T00:02:16;100230.63;;;18.32;45.65
55990;BME280;41875;55.806;38.082;2022-08-11T00:04:51;100227.44;;;18.22;45.99
55990;BME280;41875;55.806;38.082;2022-08-11T00:07:20;100227.63;;;18.20;46.12
55990;BME280;41875;55.806;38.082;2022-08-11T00:09:48;100230.63;;;18.32;45.86
55990;BME280;41875;55.806;38.082;2022-08-11T00:12:18;100229.91;;;18.23;46.28
55990;BME280;41875;55.806;38.082;2022-08-11T00:14:54;100231.03;;;18.29;46.27
55990;BME280;41875;55.806;38.082;2022-08-11T00:17:25;100233.50;;;18.31;46.09
55990;BME280;41875;55.806;38.082;2022-08-11T00:19:58;100229.47;;;18.20;46.34
55990;BME280;41875;55.806;38.082;2022-08-11T00:22:42;100226.63;;;18.21;46.69
55990;BME280;41875;55.806;38.082;2022-08-11T00:25:11;100231.81;;;18.08;46.96
55990;BME280;41875;55.806;38.082;2022-08-11T00:27:41;100228.13;;;18.09;46.95
55990;BME280;41875;55.806;38.082;2022-08-11T00:30:10;100237.13;;;18.01;47.34
55990;BME280;41875;55.806;38.082;2022-08-11T00:32:40;100231.00;;;17.92;47.64
55990;BME280;41875;55.806;38.082;2022-08-11T00:35:10;100234.84;;;17.98;47.22
55990;BME280;41875;55.806;38.082;2022-08-11T00:37:59;100240.09;;;17.91;47.64
55990;BME280;41875;55.806;38.082;2022-08-11T00:40:31;100235.22;;;17.80;47.95
55990;BME280;41875;55.806;38.082;2022-08-11T00:43:06;100238.19;;;17.70;48.20
55990;BME280;41875;55.806;38.082;2022-08-11T00:45:53;100244.97;;;17.66;48.09
55990;BME280;41875;55.806;38.082;2022-08-11T00:48:28;100244.22;;;17.57;48.65
55990;BME280;41875;55.806;38.082;2022-08-11T00:51:03;100255.50;;;17.52;48.68
55990;BME280;41875;55.806;38.082;2022-08-11T00:53:38;100246.09;;;17.42;49.14
55990;BME280;41875;55.806;38.082;2022-08-11T00:56:16;100242.13;;;17.23;49.73
55990;BME280;41875;55.806;38.082;2022-08-11T00:59:14;100241.75;;;17.26;49.44
55990;BME280;41875;55.806;38.082;2022-08-11T01:02:13;100250.91;;;17.16;50.09
55990;BME280;41875;55.806;38.082;2022-08-11T01:10:36;100264.41;;;16.85;51.01
55990;BME280;41875;55.806;38.082;2022-08-11T01:13:13;100266.56;;;17.04;50.48
55990;BME280;41875;55.806;38.082;2022-08-11T01:15:57;100262.63;;;17.15;50.46
55990;BME280;41875;55.806;38.082;2022-08-11T01:33:03;100269.16;;;17.28;50.38
55990;BME280;41875;55.806;38.082;2022-08-11T01:35:43;100267.25;;;17.21;50.60
55990;BME280;41875;55.806;38.082;2022-08-11T01:38:37;100272.13;;;17.03;51.23
55990;BME280;41875;55.806;38.082;2022-08-11T01:41:21;100275.00;;;17.01;51.11
55990;BME280;41875;55.806;38.082;2022-08-11T01:44:24;100271.75;;;17.06;51.22
55990;BME280;41875;55.806;38.082;2022-08-11T01:47:07;100269.91;;;17.06;51.29
55990;BME280;41875;55.806;38.082;2022-08-11T01:50:03;100267.41;;;17.05;51.11
55990;BME280;41875;55.806;38.082;2022-08-11T01:52:40;100266.84;;;17.25;50.75
55990;BME280;41875;55.806;38.082;2022-08-11T01:55:11;100274.53;;;17.28;50.63
55990;BME280;41875;55.806;38.082;2022-08-11T01:57:43;100274.25;;;17.37;50.53
55990;BME280;41875;55.806;38.082;2022-08-11T02:00:13;100283.31;;;17.51;50.23
55990;BME280;41875;55.806;38.082;2022-08-11T02:02:45;100289.72;;;17.87;49.32
55990;BME280;41875;55.806;38.082;2022-08-11T02:05:26;100297.34;;;18.42;47.59
55990;BME280;41875;55.806;38.082;2022-08-11T02:07:58;100295.75;;;18.69;47.16
55990;BME280;41875;55.806;38.082;2022-08-11T02:10:32;100294.47;;;18.87;46.78
55990;BME280;41875;55.806;38.082;2022-08-11T02:13:45;100288.53;;;19.20;45.86
55990;BME280;41875;55.806;38.082;2022-08-11T02:16:16;100296.25;;;19.37;45.46
55990;BME280;41875;55.806;38.082;2022-08-11T02:18:50;100294.25;;;19.52;44.88
55990;BME280;41875;55.806;38.082;2022-08-11T02:21:40;100285.88;;;19.69;44.66
55990;BME280;41875;55.806;38.082;2022-08-11T02:24:29;100294.13;;;20.02;44.06
55990;BME280;41875;55.806;38.082;2022-08-11T02:27:01;100296.88;;;20.43;43.16
55990;BME280;41875;55.806;38.082;2022-08-11T02:29:34;100298.38;;;20.72;42.56
55990;BME280;41875;55.806;38.082;2022-08-11T02:32:08;100302.19;;;21.70;40.41
55990;BME280;41875;55.806;38.082;2022-08-11T02:35:01;100297.25;;;22.45;38.89
55990;BME280;41875;55.806;38.082;2022-08-11T02:37:33;100291.06;;;23.13;37.30
55990;BME280;41875;55.806;38.082;2022-08-11T02:40:09;100305.97;;;22.97;37.76
55990;BME280;41875;55.806;38.082;2022-08-11T02:42:39;100302.53;;;23.34;37.01
55990;BME280;41875;55.806;38.082;2022-08-11T02:45:18;100297.34;;;23.70;36.42
55990;BME280;41875;55.806;38.082;2022-08-11T02:47:57;100294.31;;;23.97;35.92
55990;BME280;41875;55.806;38.082;2022-08-11T02:50:48;100312.75;;;23.51;36.46
55990;BME280;41875;55.806;38.082;2022-08-11T02:53:21;100311.75;;;23.82;35.76
55990;BME280;41875;55.806;38.082;2022-08-11T02:55:54;100311.38;;;23.60;36.41
55990;BME280;41875;55.806;38.082;2022-08-11T02:58:28;100312.94;;;24.05;35.64
55990;BME280;41875;55.806;38.082;2022-08-11T03:01:02;100314.13;;;24.09;35.55
55990;BME280;41875;55.806;38.082;2022-08-11T03:03:32;100317.44;;;24.54;34.58
55990;BME280;41875;55.806;38.082;2022-08-11T03:06:07;100322.16;;;24.58;34.34
55990;BME280;41875;55.806;38.082;2022-08-11T03:08:50;100321.00;;;24.66;34.21
55990;BME280;41875;55.806;38.082;2022-08-11T03:11:38;100330.22;;;24.65;34.28
55990;BME280;41875;55.806;38.082;2022-08-11T03:14:28;100337.22;;;25.20;33.46
55990;BME280;41875;55.806;38.082;2022-08-11T03:20:03;100330.16;;;25.31;33.26
55990;BME280;41875;55.806;38.082;2022-08-11T03:22:34;100334.06;;;25.88;32.37
55990;BME280;41875;55.806;38.082;2022-08-11T03:25:07;100328.78;;;25.81;32.53
55990;BME280;41875;55.806;38.082;2022-08-11T03:28:03;100339.72;;;25.46;33.11
55990;BME280;41875;55.806;38.082;2022-08-11T03:30:39;100339.97;;;24.66;34.68
55990;BME280;41875;55.806;38.082;2022-08-11T03:33:14;100346.63;;;23.72;36.56
55990;BME280;41875;55.806;38.082;2022-08-11T03:36:04;100338.16;;;22.42;39.46
55990;BME280;41875;55.806;38.082;2022-08-11T03:38:42;100341.91;;;21.95;40.56
55990;BME280;41875;55.806;38.082;2022-08-11T03:41:13;100341.88;;;21.09;42.58
55990;BME280;41875;55.806;38.082;2022-08-11T03:44:27;100347.22;;;20.55;44.03
55990;BME280;41875;55.806;38.082;2022-08-11T03:47:09;100343.75;;;20.06;45.07
55990;BME280;41875;55.806;38.082;2022-08-11T03:49:43;100344.66;;;20.27;45.05
55990;BME280;41875;55.806;38.082;2022-08-11T03:52:15;100337.25;;;20.43;45.04
55990;BME280;41875;55.806;38.082;2022-08-11T03:54:49;100337.91;;;20.71;44.62
55990;BME280;41875;55.806;38.082;2022-08-11T04:00:28;100341.38;;;20.38;45.60
55990;BME280;41875;55.806;38.082;2022-08-11T04:03:16;100343.44;;;20.36;46.09
55990;BME280;41875;55.806;38.082;2022-08-11T04:09:05;100343.09;;;20.80;44.94
55990;BME280;41875;55.806;38.082;2022-08-11T04:11:53;100333.19;;;20.80;45.18
55990;BME280;41875;55.806;38.082;2022-08-11T04:14:30;100345.75;;;20.66;45.47
55990;BME280;41875;55.806;38.082;2022-08-11T04:20:21;100340.25;;;21.94;43.16
55990;BME280;41875;55.806;38.082;2022-08-11T04:22:57;100348.03;;;22.16;42.57
55990;BME280;41875;55.806;38.082;2022-08-11T04:25:35;100345.09;;;21.72;43.55
55990;BME280;41875;55.806;38.082;2022-08-11T04:28:41;100342.06;;;21.28;45.07
55990;BME280;41875;55.806;38.082;2022-08-11T04:31:38;100346.31;;;22.67;42.39
55990;BME280;41875;55.806;38.082;2022-08-11T04:40:08;100348.34;;;21.94;43.59
55990;BME280;41875;55.806;38.082;2022-08-11T04:45:51;100353.69;;;22.01;44.09
55990;BME280;41875;55.806;38.082;2022-08-11T04:48:38;100351.47;;;21.98;44.20
55990;BME280;41875;55.806;38.082;2022-08-11T04:51:42;100355.50;;;22.59;43.12
55990;BME280;41875;55.806;38.082;2022-08-11T04:54:34;100356.63;;;22.45;43.18
55990;BME280;41875;55.806;38.082;2022-08-11T04:57:27;100357.16;;;22.21;43.92
55990;BME280;41875;55.806;38.082;2022-08-11T05:00:19;100355.25;;;22.29;43.83
55990;BME280;41875;55.806;38.082;2022-08-11T05:14:23;100353.78;;;23.22;42.76
55990;BME280;41875;55.806;38.082;2022-08-11T05:17:13;100361.50;;;22.93;43.02
55990;BME280;41875;55.806;38.082;2022-08-11T05:20:00;100356.09;;;24.00;41.24
55990;BME280;41875;55.806;38.082;2022-08-11T05:22:47;100364.47;;;23.10;43.24
55990;BME280;41875;55.806;38.082;2022-08-11T05:25:34;100358.78;;;22.68;44.22
55990;BME280;41875;55.806;38.082;2022-08-11T05:28:41;100363.59;;;22.91;43.87
55990;BME280;41875;55.806;38.082;2022-08-11T05:31:48;100366.41;;;23.03;43.49
55990;BME280;41875;55.806;38.082;2022-08-11T05:34:40;100367.75;;;24.00;41.49
55990;BME280;41875;55.806;38.082;2022-08-11T05:37:32;100364.47;;;23.36;42.97
55990;BME280;41875;55.806;38.082;2022-08-11T05:40:04;100365.53;;;23.35;43.57
55990;BME280;41875;55.806;38.082;2022-08-11T05:42:54;100367.63;;;25.22;39.67
55990;BME280;41875;55.806;38.082;2022-08-11T05:45:42;100365.03;;;25.04;39.89
55990;BME280;41875;55.806;38.082;2022-08-11T05:48:33;100362.09;;;24.51;41.44
55990;BME280;41875;55.806;38.082;2022-08-11T05:51:19;100358.81;;;24.00;43.01
55990;BME280;41875;55.806;38.082;2022-08-11T05:54:19;100358.72;;;24.07;42.34
55990;BME280;41875;55.806;38.082;2022-08-11T05:57:05;100364.59;;;24.03;43.02
55990;BME280;41875;55.806;38.082;2022-08-11T05:59:34;100367.75;;;24.61;41.55
55990;BME280;41875;55.806;38.082;2022-08-11T06:02:02;100359.63;;;25.16;40.70
55990;BME280;41875;55.806;38.082;2022-08-11T06:04:33;100359.03;;;24.90;40.53
55990;BME280;41875;55.806;38.082;2022-08-11T06:07:02;100359.56;;;25.87;39.16
55990;BME280;41875;55.806;38.082;2022-08-11T06:09:35;100370.44;;;24.80;41.00
55990;BME280;41875;55.806;38.082;2022-08-11T06:12:05;100356.31;;;25.49;39.52
55990;BME280;41875;55.806;38.082;2022-08-11T06:14:35;100355.84;;;25.05;40.37
55990;BME280;41875;55.806;38.082;2022-08-11T06:17:08;100358.72;;;24.68;41.35
55990;BME280;41875;55.806;38.082;2022-08-11T06:19:39;100355.84;;;24.93;41.61
55990;BME280;41875;55.806;38.082;2022-08-11T06:22:09;100362.53;;;24.90;40.90
55990;BME280;41875;55.806;38.082;2022-08-11T06:24:39;100358.78;;;25.03;40.35
55990;BME280;41875;55.806;38.082;2022-08-11T06:27:08;100362.59;;;25.14;40.66
55990;BME280;41875;55.806;38.082;2022-08-11T06:29:45;100352.09;;;26.06;38.70
55990;BME280;41875;55.806;38.082;2022-08-11T06:32:25;100364.00;;;25.64;39.50
55990;BME280;41875;55.806;38.082;2022-08-11T06:34:57;100371.03;;;25.06;40.27
55990;BME280;41875;55.806;38.082;2022-08-11T06:37:34;100364.50;;;25.90;39.14
55990;BME280;41875;55.806;38.082;2022-08-11T06:40:07;100380.53;;;26.15;38.22
55990;BME280;41875;55.806;38.082;2022-08-11T06:42:43;100372.19;;;25.93;38.32
55990;BME280;41875;55.806;38.082;2022-08-11T06:45:15;100369.19;;;26.07;38.83
55990;BME280;41875;55.806;38.082;2022-08-11T06:47:46;100366.16;;;26.78;37.08
55990;BME280;41875;55.806;38.082;2022-08-11T06:50:16;100367.16;;;25.85;38.65
55990;BME280;41875;55.806;38.082;2022-08-11T06:53:03;100365.38;;;26.48;37.57
55990;BME280;41875;55.806;38.082;2022-08-11T06:55:35;100363.91;;;26.58;37.01
55990;BME280;41875;55.806;38.082;2022-08-11T06:58:25;100366.94;;;26.90;36.24
55990;BME280;41875;55.806;38.082;2022-08-11T07:01:13;100365.66;;;27.32;36.10
55990;BME280;41875;55.806;38.082;2022-08-11T07:03:44;100384.13;;;26.79;36.49
55990;BME280;41875;55.806;38.082;2022-08-11T07:09:31;100359.94;;;26.95;36.31
55990;BME280;41875;55.806;38.082;2022-08-11T07:12:26;100366.94;;;27.07;35.89
55990;BME280;41875;55.806;38.082;2022-08-11T07:15:19;100368.56;;;27.26;35.31
55990;BME280;41875;55.806;38.082;2022-08-11T07:18:30;100363.88;;;26.87;36.29
55990;BME280;41875;55.806;38.082;2022-08-11T07:21:19;100361.22;;;27.26;35.57
55990;BME280;41875;55.806;38.082;2022-08-11T07:24:27;100370.66;;;25.97;36.22
55990;BME280;41875;55.806;38.082;2022-08-11T07:27:31;100381.63;;;25.91;35.41
55990;BME280;41875;55.806;38.082;2022-08-11T07:30:20;100364.63;;;27.16;35.01
55990;BME280;41875;55.806;38.082;2022-08-11T07:32:50;100366.75;;;27.93;32.19
55990;BME280;41875;55.806;38.082;2022-08-11T07:35:20;100367.78;;;26.04;36.04
55990;BME280;41875;55.806;38.082;2022-08-11T07:37:49;100384.75;;;25.70;36.16
55990;BME280;41875;55.806;38.082;2022-08-11T07:40:29;100370.06;;;25.95;34.38
55990;BME280;41875;55.806;38.082;2022-08-11T07:42:59;100360.06;;;26.71;33.84
55990;BME280;41875;55.806;38.082;2022-08-11T07:45:27;100346.69;;;26.98;33.16
55990;BME280;41875;55.806;38.082;2022-08-11T07:48:14;100364.72;;;27.21;32.59
55990;BME280;41875;55.806;38.082;2022-08-11T07:51:00;100362.31;;;27.08;32.47
55990;BME280;41875;55.806;38.082;2022-08-11T07:53:46;100367.75;;;27.08;33.05
55990;BME280;41875;55.806;38.082;2022-08-11T07:56:32;100377.16;;;27.17;32.02
55990;BME280;41875;55.806;38.082;2022-08-11T07:59:22;100370.91;;;27.39;32.59
55990;BME280;41875;55.806;38.082;2022-08-11T08:02:26;100377.63;;;28.37;31.40
55990;BME280;41875;55.806;38.082;2022-08-11T08:05:12;100369.91;;;28.56;30.53
55990;BME280;41875;55.806;38.082;2022-08-11T08:07:59;100365.59;;;28.88;29.94
55990;BME280;41875;55.806;38.082;2022-08-11T08:10:45;100371.00;;;28.06;30.53
55990;BME280;41875;55.806;38.082;2022-08-11T08:13:30;100361.31;;;27.14;32.21
55990;BME280;41875;55.806;38.082;2022-08-11T08:16:17;100373.88;;;27.54;30.93
55990;BME280;41875;55.806;38.082;2022-08-11T08:19:04;100363.09;;;28.59;30.83
55990;BME280;41875;55.806;38.082;2022-08-11T08:21:33;100376.41;;;27.22;31.02
55990;BME280;41875;55.806;38.082;2022-08-11T08:24:01;100358.44;;;26.87;32.03
55990;BME280;41875;55.806;38.082;2022-08-11T08:26:30;100358.69;;;27.02;30.28
55990;BME280;41875;55.806;38.082;2022-08-11T08:29:17;100367.69;;;27.03;30.47
55990;BME280;41875;55.806;38.082;2022-08-11T08:32:06;100362.28;;;26.74;30.44
55990;BME280;41875;55.806;38.082;2022-08-11T08:34:37;100362.41;;;26.79;31.21
55990;BME280;41875;55.806;38.082;2022-08-11T08:37:07;100354.72;;;27.10;31.25
55990;BME280;41875;55.806;38.082;2022-08-11T08:39:55;100358.06;;;26.49;30.14
55990;BME280;41875;55.806;38.082;2022-08-11T08:42:25;100357.09;;;27.23;30.78
55990;BME280;41875;55.806;38.082;2022-08-11T08:44:55;100356.78;;;27.37;30.25
55990;BME280;41875;55.806;38.082;2022-08-11T08:47:27;100362.97;;;27.15;30.28
55990;BME280;41875;55.806;38.082;2022-08-11T08:50:09;100359.59;;;26.91;28.66
55990;BME280;41875;55.806;38.082;2022-08-11T08:52:44;100357.84;;;27.19;29.28
55990;BME280;41875;55.806;38.082;2022-08-11T08:55:16;100353.75;;;27.16;29.15
55990;BME280;41875;55.806;38.082;2022-08-11T08:57:47;100352.47;;;28.30;27.90
55990;BME280;41875;55.806;38.082;2022-08-11T09:00:17;100357.56;;;28.21;28.92
55990;BME280;41875;55.806;38.082;2022-08-11T09:02:50;100359.34;;;26.92;31.04
55990;BME280;41875;55.806;38.082;2022-08-11T09:05:19;100350.38;;;26.92;30.85
55990;BME280;41875;55.806;38.082;2022-08-11T09:07:49;100347.41;;;27.11;31.29
55990;BME280;41875;55.806;38.082;2022-08-11T09:10:19;100350.13;;;26.93;30.64
55990;BME280;41875;55.806;38.082;2022-08-11T09:12:47;100344.69;;;26.93;31.70
55990;BME280;41875;55.806;38.082;2022-08-11T09:15:17;100343.03;;;27.10;29.63
55990;BME280;41875;55.806;38.082;2022-08-11T09:17:46;100346.00;;;27.25;28.26
55990;BME280;41875;55.806;38.082;2022-08-11T09:20:18;100339.28;;;27.72;29.04
55990;BME280;41875;55.806;38.082;2022-08-11T09:22:47;100349.34;;;27.72;28.76
55990;BME280;41875;55.806;38.082;2022-08-11T09:25:55;100343.41;;;27.97;29.38
55990;BME280;41875;55.806;38.082;2022-08-11T09:28:41;100341.78;;;28.01;29.18
55990;BME280;41875;55.806;38.082;2022-08-11T09:31:10;100329.06;;;28.62;28.01
55990;BME280;41875;55.806;38.082;2022-08-11T09:33:39;100335.16;;;29.07;27.60
55990;BME280;41875;55.806;38.082;2022-08-11T09:36:10;100328.56;;;28.97;26.82
55990;BME280;41875;55.806;38.082;2022-08-11T09:38:56;100334.66;;;29.15;27.66
55990;BME280;41875;55.806;38.082;2022-08-11T09:41:42;100327.16;;;29.96;26.58
55990;BME280;41875;55.806;38.082;2022-08-11T09:44:29;100339.53;;;30.24;25.40
55990;BME280;41875;55.806;38.082;2022-08-11T09:47:16;100341.19;;;28.43;26.71
55990;BME280;41875;55.806;38.082;2022-08-11T09:49:45;100340.00;;;28.34;27.19
55990;BME280;41875;55.806;38.082;2022-08-11T09:52:16;100328.16;;;28.83;27.88
55990;BME280;41875;55.806;38.082;2022-08-11T09:54:45;100327.69;;;28.92;27.08
55990;BME280;41875;55.806;38.082;2022-08-11T09:57:17;100326.72;;;29.13;26.56
55990;BME280;41875;55.806;38.082;2022-08-11T10:00:05;100333.53;;;29.11;26.99
55990;BME280;41875;55.806;38.082;2022-08-11T10:02:41;100329.47;;;29.13;24.90
55990;BME280;41875;55.806;38.082;2022-08-11T10:05:10;100332.94;;;28.66;25.05
55990;BME280;41875;55.806;38.082;2022-08-11T10:08:00;100329.16;;;29.10;24.05
55990;BME280;41875;55.806;38.082;2022-08-11T10:10:29;100315.75;;;30.25;24.33
55990;BME280;41875;55.806;38.082;2022-08-11T10:13:02;100319.00;;;31.25;23.67
55990;BME280;41875;55.806;38.082;2022-08-11T10:15:53;100321.25;;;30.66;23.06
55990;BME280;41875;55.806;38.082;2022-08-11T10:18:41;100322.31;;;31.01;25.24
55990;BME280;41875;55.806;38.082;2022-08-11T10:21:21;100314.91;;;31.17;22.80
55990;BME280;41875;55.806;38.082;2022-08-11T10:23:52;100321.13;;;31.44;22.39
55990;BME280;41875;55.806;38.082;2022-08-11T10:26:38;100327.34;;;31.65;23.22
55990;BME280;41875;55.806;38.082;2022-08-11T10:29:22;100311.25;;;31.53;21.59
55990;BME280;41875;55.806;38.082;2022-08-11T10:32:17;100316.69;;;31.58;22.54
55990;BME280;41875;55.806;38.082;2022-08-11T10:35:24;100332.03;;;28.87;25.91
55990;BME280;41875;55.806;38.082;2022-08-11T10:37:53;100316.59;;;29.03;25.97
55990;BME280;41875;55.806;38.082;2022-08-11T10:40:37;100312.88;;;28.82;26.47
55990;BME280;41875;55.806;38.082;2022-08-11T10:43:06;100318.31;;;27.95;27.44
55990;BME280;41875;55.806;38.082;2022-08-11T10:45:40;100308.88;;;27.36;28.37
55990;BME280;41875;55.806;38.082;2022-08-11T10:48:27;100313.66;;;27.68;27.31
55990;BME280;41875;55.806;38.082;2022-08-11T10:50:56;100303.47;;;27.58;27.63
55990;BME280;41875;55.806;38.082;2022-08-11T10:53:41;100312.94;;;27.16;28.63
55990;BME280;41875;55.806;38.082;2022-08-11T10:56:30;100299.75;;;28.14;27.31
55990;BME280;41875;55.806;38.082;2022-08-11T10:59:17;100294.78;;;29.03;25.49
55990;BME280;41875;55.806;38.082;2022-08-11T11:01:45;100285.72;;;28.98;25.78
55990;BME280;41875;55.806;38.082;2022-08-11T11:04:14;100293.41;;;28.08;27.18
55990;BME280;41875;55.806;38.082;2022-08-11T11:06:48;100297.81;;;27.87;26.69
55990;BME280;41875;55.806;38.082;2022-08-11T11:09:23;100287.22;;;28.45;26.19
55990;BME280;41875;55.806;38.082;2022-08-11T11:11:58;100285.34;;;28.79;25.34
55990;BME280;41875;55.806;38.082;2022-08-11T11:14:53;100270.50;;;29.65;24.04
55990;BME280;41875;55.806;38.082;2022-08-11T11:17:44;100276.00;;;29.12;25.86
55990;BME280;41875;55.806;38.082;2022-08-11T11:20:24;100273.34;;;29.96;24.96
55990;BME280;41875;55.806;38.082;2022-08-11T11:23:05;100273.41;;;30.59;23.91
55990;BME280;41875;55.806;38.082;2022-08-11T11:25:43;100276.94;;;30.54;23.42
55990;BME280;41875;55.806;38.082;2022-08-11T11:28:41;100276.72;;;29.45;24.01
55990;BME280;41875;55.806;38.082;2022-08-11T11:31:19;100270.25;;;28.71;25.22
55990;BME280;41875;55.806;38.082;2022-08-11T11:34:04;100268.34;;;29.09;24.71
55990;BME280;41875;55.806;38.082;2022-08-11T11:36:40;100256.38;;;29.89;24.90
55990;BME280;41875;55.806;38.082;2022-08-11T11:39:12;100258.09;;;30.21;23.61
55990;BME280;41875;55.806;38.082;2022-08-11T11:41:40;100265.75;;;30.45;22.95
55990;BME280;41875;55.806;38.082;2022-08-11T11:44:11;100266.56;;;30.30;23.23
55990;BME280;41875;55.806;38.082;2022-08-11T11:46:41;100269.06;;;28.89;25.48
55990;BME280;41875;55.806;38.082;2022-08-11T11:49:12;100271.41;;;28.42;25.78
55990;BME280;41875;55.806;38.082;2022-08-11T11:51:43;100264.41;;;28.52;26.14
55990;BME280;41875;55.806;38.082;2022-08-11T11:54:16;100278.13;;;27.80;26.45
55990;BME280;41875;55.806;38.082;2022-08-11T11:56:44;100274.25;;;27.76;26.33
55990;BME280;41875;55.806;38.082;2022-08-11T11:59:14;100275.56;;;27.68;26.42
55990;BME280;41875;55.806;38.082;2022-08-11T12:02:00;100266.09;;;28.58;25.16
55990;BME280;41875;55.806;38.082;2022-08-11T12:04:39;100259.16;;;28.78;25.06
55990;BME280;41875;55.806;38.082;2022-08-11T12:07:08;100267.03;;;28.74;25.13
55990;BME280;41875;55.806;38.082;2022-08-11T12:09:55;100263.09;;;28.59;25.37
55990;BME280;41875;55.806;38.082;2022-08-11T12:12:24;100251.66;;;28.63;25.49
55990;BME280;41875;55.806;38.082;2022-08-11T12:15:10;100251.44;;;28.69;25.22
55990;BME280;41875;55.806;38.082;2022-08-11T12:17:39;100240.81;;;29.90;23.95
55990;BME280;41875;55.806;38.082;2022-08-11T12:20:07;100245.78;;;30.39;23.08
55990;BME280;41875;55.806;38.082;2022-08-11T12:22:56;100238.44;;;30.09;23.36
55990;BME280;41875;55.806;38.082;2022-08-11T12:25:42;100244.28;;;28.96;24.79
55990;BME280;41875;55.806;38.082;2022-08-11T12:28:49;100255.19;;;28.96;24.62
55990;BME280;41875;55.806;38.082;2022-08-11T12:31:18;100252.78;;;29.63;25.56
55990;BME280;41875;55.806;38.082;2022-08-11T12:33:51;100250.94;;;29.20;23.69
55990;BME280;41875;55.806;38.082;2022-08-11T12:36:21;100246.34;;;28.78;24.48
55990;BME280;41875;55.806;38.082;2022-08-11T12:38:50;100244.31;;;29.59;23.79
55990;BME280;41875;55.806;38.082;2022-08-11T12:41:19;100242.16;;;29.77;23.10
55990;BME280;41875;55.806;38.082;2022-08-11T12:44:06;100237.97;;;29.48;23.22
55990;BME280;41875;55.806;38.082;2022-08-11T12:46:55;100240.00;;;29.79;23.32
55990;BME280;41875;55.806;38.082;2022-08-11T12:49:25;100244.34;;;29.85;22.39
55990;BME280;41875;55.806;38.082;2022-08-11T12:52:13;100236.91;;;29.60;23.40
55990;BME280;41875;55.806;38.082;2022-08-11T12:54:52;100240.81;;;29.11;24.35
55990;BME280;41875;55.806;38.082;2022-08-11T12:57:30;100244.16;;;29.28;23.45
55990;BME280;41875;55.806;38.082;2022-08-11T13:00:17;100238.69;;;29.97;22.92
55990;BME280;41875;55.806;38.082;2022-08-11T13:03:05;100236.22;;;30.11;22.88
55990;BME280;41875;55.806;38.082;2022-08-11T13:05:52;100242.69;;;29.63;23.20
55990;BME280;41875;55.806;38.082;2022-08-11T13:08:21;100241.47;;;28.48;24.81
55990;BME280;41875;55.806;38.082;2022-08-11T13:10:57;100227.78;;;28.37;25.19
55990;BME280;41875;55.806;38.082;2022-08-11T13:13:44;100230.44;;;28.70;24.78
55990;BME280;41875;55.806;38.082;2022-08-11T13:16:23;100226.53;;;28.55;24.44
55990;BME280;41875;55.806;38.082;2022-08-11T13:18:53;100227.13;;;29.05;23.71
55990;BME280;41875;55.806;38.082;2022-08-11T13:21:22;100225.22;;;29.64;22.88
55990;BME280;41875;55.806;38.082;2022-08-11T13:23:51;100223.56;;;29.63;23.10
55990;BME280;41875;55.806;38.082;2022-08-11T13:26:30;100228.84;;;30.53;21.96
55990;BME280;41875;55.806;38.082;2022-08-11T13:29:16;100231.25;;;29.87;22.68
55990;BME280;41875;55.806;38.082;2022-08-11T13:31:45;100226.13;;;30.01;22.77
55990;BME280;41875;55.806;38.082;2022-08-11T13:34:15;100224.19;;;30.48;22.94
55990;BME280;41875;55.806;38.082;2022-08-11T13:36:46;100225.25;;;30.73;22.87
55990;BME280;41875;55.806;38.082;2022-08-11T13:39:16;100219.31;;;30.24;24.03
55990;BME280;41875;55.806;38.082;2022-08-11T13:41:45;100220.66;;;30.22;23.90
55990;BME280;41875;55.806;38.082;2022-08-11T13:44:16;100218.72;;;30.02;24.09
55990;BME280;41875;55.806;38.082;2022-08-11T13:46:51;100222.88;;;29.30;25.17
55990;BME280;41875;55.806;38.082;2022-08-11T13:49:22;100217.66;;;30.13;24.13
55990;BME280;41875;55.806;38.082;2022-08-11T13:51:51;100217.34;;;30.51;24.02
55990;BME280;41875;55.806;38.082;2022-08-11T13:54:20;100214.84;;;30.91;23.13
55990;BME280;41875;55.806;38.082;2022-08-11T13:56:51;100219.44;;;28.92;24.92
55990;BME280;41875;55.806;38.082;2022-08-11T13:59:20;100219.03;;;28.08;25.59
55990;BME280;41875;55.806;38.082;2022-08-11T14:01:55;100215.66;;;28.98;24.09
55990;BME280;41875;55.806;38.082;2022-08-11T14:04:49;100208.34;;;29.09;23.86
55990;BME280;41875;55.806;38.082;2022-08-11T14:07:20;100197.78;;;29.28;23.55
55990;BME280;41875;55.806;38.082;2022-08-11T14:09:52;100202.94;;;29.30;24.47
55990;BME280;41875;55.806;38.082;2022-08-11T14:12:23;100202.00;;;28.55;25.18
55990;BME280;41875;55.806;38.082;2022-08-11T14:15:11;100208.09;;;29.21;24.16
55990;BME280;41875;55.806;38.082;2022-08-11T14:17:46;100195.44;;;28.51;25.01
55990;BME280;41875;55.806;38.082;2022-08-11T14:20:18;100192.97;;;28.87;24.36
55990;BME280;41875;55.806;38.082;2022-08-11T14:23:07;100194.47;;;29.16;23.91
55990;BME280;41875;55.806;38.082;2022-08-11T14:25:37;100192.72;;;29.68;23.82
55990;BME280;41875;55.806;38.082;2022-08-11T14:28:29;100192.16;;;28.49;24.59
55990;BME280;41875;55.806;38.082;2022-08-11T14:31:07;100192.28;;;28.65;24.54
55990;BME280;41875;55.806;38.082;2022-08-11T14:33:35;100183.59;;;28.73;24.86
55990;BME280;41875;55.806;38.082;2022-08-11T14:36:26;100185.16;;;29.12;24.35
55990;BME280;41875;55.806;38.082;2022-08-11T14:38:55;100184.97;;;28.33;25.52